TimeCEST,TemperatureF,Dew PointF,Humidity,Sea Level PressureIn,VisibilityMPH,Wind Direction,Wind SpeedMPH,Gust SpeedMPH,PrecipitationIn,Events,Conditions,WindDirDegrees,DateUTC
12:20 AM,68.0,60.8,78,29.86,6.2,SW,4.6,-,N/A,,Partly Cloudy,220,2012-10-09 22:20:00
12:50 AM,66.2,60.8,83,29.86,6.2,West,3.5,-,N/A,,Partly Cloudy,280,2012-10-09 22:50:00
1:20 AM,64.4,60.8,88,29.86,6.2,SW,4.6,-,N/A,,Partly Cloudy,230,2012-10-09 23:20:00
1:50 AM,64.4,59.0,83,29.86,6.2,West,4.6,-,N/A,,Partly Cloudy,260,2012-10-09 23:50:00
2:20 AM,64.4,59.0,83,29.86,6.2,West,3.5,-,N/A,,Partly Cloudy,280,2012-10-10 00:20:00
2:50 AM,64.4,59.0,83,29.83,6.2,West,3.5,-,N/A,,Partly Cloudy,260,2012-10-10 00:50:00
3:20 AM,64.4,59.0,83,29.83,6.2,SW,3.5,-,N/A,,Partly Cloudy,230,2012-10-10 01:20:00
3:50 AM,62.6,57.2,82,29.83,6.2,WSW,3.5,-,N/A,,Partly Cloudy,240,2012-10-10 01:50:00
4:20 AM,62.6,57.2,82,29.83,6.2,WSW,3.5,-,N/A,,Partly Cloudy,250,2012-10-10 02:20:00
4:50 AM,62.6,57.2,82,29.83,6.2,WSW,6.9,-,N/A,,Partly Cloudy,250,2012-10-10 02:50:00
5:20 AM,60.8,57.2,88,29.83,6.2,WSW,5.8,-,N/A,,Partly Cloudy,250,2012-10-10 03:20:00
5:50 AM,60.8,57.2,88,29.83,6.2,West,5.8,-,N/A,,Partly Cloudy,270,2012-10-10 03:50:00
6:20 AM,60.8,57.2,88,29.83,6.2,WSW,5.8,-,N/A,,Partly Cloudy,250,2012-10-10 04:20:00
6:50 AM,60.8,55.4,82,29.83,6.2,WSW,6.9,-,N/A,,Partly Cloudy,240,2012-10-10 04:50:00
7:20 AM,60.8,55.4,82,29.83,-9999.0,West,3.5,-,N/A,,Clear,260,2012-10-10 05:20:00
7:50 AM,64.4,57.2,77,29.83,-9999.0,WSW,5.8,-,N/A,,Clear,240,2012-10-10 05:50:00
8:20 AM,66.2,57.2,73,29.83,-9999.0,SW,4.6,-,N/A,,Clear,220,2012-10-10 06:20:00
8:50 AM,71.6,57.2,60,29.83,-9999.0,Variable,4.6,-,N/A,,Clear,0,2012-10-10 06:50:00
9:20 AM,73.4,57.2,57,29.83,-9999.0,West,8.1,-,N/A,,Clear,280,2012-10-10 07:20:00
9:50 AM,77.0,57.2,50,29.83,-9999.0,West,8.1,-,N/A,,Clear,270,2012-10-10 07:50:00
10:20 AM,78.8,55.4,44,29.83,-9999.0,West,9.2,-,N/A,,Clear,260,2012-10-10 08:20:00
10:50 AM,82.4,53.6,37,29.80,-9999.0,West,12.7,-,N/A,,Clear,270,2012-10-10 08:50:00
11:50 AM,84.2,48.2,29,29.80,6.2,West,16.1,-,N/A,,Partly Cloudy,260,2012-10-10 09:50:00
12:20 PM,86.0,48.2,27,29.80,6.2,WNW,13.8,-,N/A,,Partly Cloudy,290,2012-10-10 10:20:00
12:50 PM,84.2,53.6,35,29.80,6.2,NE,6.9,-,N/A,,Scattered Clouds,40,2012-10-10 10:50:00
1:20 PM,80.6,60.8,51,29.80,5.6,ENE,12.7,-,N/A,,Scattered Clouds,70,2012-10-10 11:20:00
1:50 PM,80.6,57.2,45,29.80,6.2,NE,11.5,-,N/A,,Partly Cloudy,50,2012-10-10 11:50:00
2:20 PM,80.6,59.0,48,29.80,6.2,East,10.4,-,N/A,,Partly Cloudy,80,2012-10-10 12:20:00
2:50 PM,80.6,59.0,48,29.80,6.2,ENE,13.8,-,N/A,,Partly Cloudy,70,2012-10-10 12:50:00
3:20 PM,78.8,60.8,54,29.80,6.2,ENE,12.7,-,N/A,,Partly Cloudy,70,2012-10-10 13:20:00
3:50 PM,77.0,62.6,61,29.80,6.2,NE,11.5,-,N/A,,Partly Cloudy,40,2012-10-10 13:50:00
4:20 PM,78.8,60.8,54,29.80,6.2,NE,12.7,-,N/A,,Partly Cloudy,50,2012-10-10 14:20:00
4:50 PM,77.0,60.8,57,29.80,6.2,ENE,13.8,-,N/A,,Partly Cloudy,70,2012-10-10 14:50:00
5:20 PM,77.0,60.8,57,29.80,6.2,East,8.1,-,N/A,,Partly Cloudy,90,2012-10-10 15:20:00
5:50 PM,75.2,60.8,61,29.80,6.2,East,5.8,-,N/A,,Partly Cloudy,100,2012-10-10 15:50:00
6:20 PM,75.2,60.8,61,29.80,6.2,Variable,6.9,-,N/A,,Partly Cloudy,0,2012-10-10 16:20:00
6:50 PM,73.4,60.8,65,29.83,6.2,Variable,2.3,-,N/A,,Partly Cloudy,0,2012-10-10 16:50:00
7:20 PM,73.4,60.8,65,29.83,6.2,WSW,4.6,-,N/A,,Partly Cloudy,250,2012-10-10 17:20:00
7:50 PM,75.2,48.2,38,29.83,6.2,West,13.8,-,N/A,,Partly Cloudy,270,2012-10-10 17:50:00
8:20 PM,75.2,50.0,41,29.83,-9999.0,WSW,13.8,-,N/A,,Clear,250,2012-10-10 18:20:00
8:50 PM,73.4,50.0,44,29.83,-9999.0,West,12.7,-,N/A,,Clear,280,2012-10-10 18:50:00
9:20 PM,73.4,55.4,53,29.83,-9999.0,WNW,10.4,-,N/A,,Clear,290,2012-10-10 19:20:00
9:50 PM,71.6,51.8,50,29.86,-9999.0,WNW,9.2,-,N/A,,Clear,290,2012-10-10 19:50:00
10:20 PM,71.6,51.8,50,29.86,-9999.0,WNW,8.1,-,N/A,,Clear,290,2012-10-10 20:20:00
10:50 PM,69.8,51.8,53,29.86,-9999.0,WNW,6.9,-,N/A,,Clear,290,2012-10-10 20:50:00
11:20 PM,68.0,51.8,56,29.86,-9999.0,WSW,6.9,-,N/A,,Clear,240,2012-10-10 21:20:00
11:50 PM,68.0,51.8,56,29.86,-9999.0,West,5.8,-,N/A,,Clear,260,2012-10-10 21:50:00